Time;durP1;ratioP1;P1;durP2;ratioP2;P2;SDS_P1;SDS_P2;PMS_P1;PMS_P2;Temp;Humidity;BMP_temperature;BMP_pressure;BME280_temperature;BME280_humidity;BME280_pressure;Samples;Min_cycle;Max_cycle;Signal;HPM_P1;HPM_P2
2021/06/08 00:01:14;;;;;;;4.40;4.00;;;17.90;99.90;;;;;;5082683;28;20193;-49
2021/06/08 00:03:41;;;;;;;5.23;4.77;;;17.90;99.90;;;;;;5065344;28;20206;-47
2021/06/08 00:06:07;;;;;;;4.63;4.23;;;17.90;99.90;;;;;;5080706;28;20201;-46
2021/06/08 00:08:34;;;;;;;4.87;4.47;;;17.80;99.90;;;;;;5072727;28;20221;-50
2021/06/08 00:11:01;;;;;;;4.77;4.47;;;17.80;99.90;;;;;;5083083;28;20259;-46
2021/06/08 00:13:27;;;;;;;4.80;4.37;;;17.80;99.90;;;;;;5069109;28;20194;-50
2021/06/08 00:15:53;;;;;;;5.07;4.67;;;17.80;99.90;;;;;;5081422;28;20212;-46
2021/06/08 00:18:20;;;;;;;4.57;4.17;;;17.70;99.90;;;;;;5073927;28;20190;-51
2021/06/08 00:20:46;;;;;;;4.77;4.37;;;17.50;99.90;;;;;;5080290;28;20904;-48
2021/06/08 00:23:12;;;;;;;5.17;4.80;;;17.60;99.90;;;;;;5077704;28;20208;-50
2021/06/08 00:25:39;;;;;;;4.77;4.37;;;17.50;99.90;;;;;;5073544;28;20201;-46
2021/06/08 00:28:07;;;;;;;4.43;4.03;;;17.50;99.90;;;;;;5082631;28;20202;-48
2021/06/08 00:30:33;;;;;;;5.10;4.70;;;17.40;99.90;;;;;;5065997;28;20202;-46
2021/06/08 00:32:59;;;;;;;4.73;4.33;;;17.40;99.90;;;;;;5074883;28;20229;-45
2021/06/08 00:35:27;;;;;;;5.30;4.83;;;17.40;99.90;;;;;;5079791;28;20190;-47
2021/06/08 00:37:53;;;;;;;6.07;4.97;;;17.30;99.90;;;;;;5081108;28;20258;-46
2021/06/08 00:40:19;;;;;;;5.20;4.90;;;17.30;99.90;;;;;;5078090;28;20263;-48
2021/06/08 00:42:47;;;;;;;5.33;4.87;;;17.30;99.90;;;;;;5078044;28;20190;-49
2021/06/08 00:45:16;;;;;;;5.63;5.13;;;17.30;99.90;;;;;;5078933;28;20753;-48
2021/06/08 00:47:42;;;;;;;7.33;5.80;;;17.20;99.90;;;;;;5064341;28;20286;-48
2021/06/08 00:50:09;;;;;;;5.23;4.73;;;17.30;99.90;;;;;;5070103;28;20729;-46
2021/06/08 00:52:35;;;;;;;5.03;4.73;;;17.30;99.90;;;;;;5081527;28;20210;-46
2021/06/08 00:55:01;;;;;;;5.40;5.00;;;17.20;99.90;;;;;;5086757;28;20247;-49
2021/06/08 00:57:27;;;;;;;7.97;7.17;;;17.30;99.90;;;;;;5076767;28;20208;-49
2021/06/08 00:59:55;;;;;;;7.53;6.93;;;17.20;99.90;;;;;;5085927;28;20625;-47
2021/06/08 01:02:21;;;;;;;7.00;6.30;;;17.30;99.90;;;;;;5072084;28;20198;-50
2021/06/08 01:04:47;;;;;;;6.57;5.97;;;17.30;99.90;;;;;;5077122;28;20989;-51
2021/06/08 01:07:13;;;;;;;7.83;7.13;;;17.30;99.90;;;;;;5078080;28;20202;-49
2021/06/08 01:09:39;;;;;;;8.03;7.27;;;17.40;99.90;;;;;;5062022;28;20203;-46
2021/06/08 01:12:06;;;;;;;7.77;7.13;;;17.40;99.90;;;;;;5066314;28;20700;-46
2021/06/08 01:14:32;;;;;;;10.30;7.83;;;17.40;99.90;;;;;;5075398;28;20338;-45
2021/06/08 01:17:00;;;;;;;8.47;7.67;;;17.40;99.90;;;;;;5074240;28;20203;-46
2021/06/08 01:19:26;;;;;;;8.40;7.60;;;17.40;99.90;;;;;;5076437;28;20218;-50
2021/06/08 01:21:54;;;;;;;7.83;7.13;;;17.40;99.90;;;;;;5083615;28;20204;-47
2021/06/08 01:24:20;;;;;;;7.73;7.17;;;17.40;99.90;;;;;;5084369;28;20201;-51
2021/06/08 01:26:46;;;;;;;7.97;7.27;;;17.40;99.90;;;;;;5069396;28;20630;-48
2021/06/08 01:29:13;;;;;;;8.33;7.63;;;17.40;99.90;;;;;;5078733;28;20217;-46
2021/06/08 01:31:40;;;;;;;8.30;7.50;;;17.40;99.90;;;;;;5069463;28;20279;-49
2021/06/08 01:34:06;;;;;;;8.50;7.77;;;17.40;99.90;;;;;;5066399;28;20277;-48
2021/06/08 01:36:37;;;;;;;10.60;8.20;;;17.40;99.90;;;;;;5073508;28;20197;-48
2021/06/08 01:39:05;;;;;;;7.70;7.03;;;17.40;99.90;;;;;;5079937;28;20226;-48
2021/06/08 01:41:32;;;;;;;8.17;7.37;;;17.40;99.90;;;;;;5082174;28;20190;-49
2021/06/08 01:43:58;;;;;;;8.20;7.50;;;17.30;99.90;;;;;;5069926;28;20202;-48
2021/06/08 01:46:24;;;;;;;10.27;8.23;;;17.30;99.90;;;;;;5074181;28;20202;-53
2021/06/08 01:48:52;;;;;;;8.70;7.90;;;17.30;99.90;;;;;;5077943;28;20780;-46
2021/06/08 01:51:25;;;;;;;8.00;7.40;;;17.30;99.90;;;;;;5076466;28;20206;-47
2021/06/08 01:54:01;;;;;;;8.47;7.63;;;17.30;99.90;;;;;;5083674;28;20289;-46
2021/06/08 01:56:29;;;;;;;8.37;7.77;;;17.20;99.90;;;;;;5074506;28;20198;-48
2021/06/08 01:59:07;;;;;;;8.07;7.43;;;17.20;99.90;;;;;;5071262;28;20708;-47
2021/06/08 02:01:47;;;;;;;7.87;7.13;;;17.20;99.90;;;;;;5074370;28;20243;-47
2021/06/08 02:04:22;;;;;;;8.03;7.27;;;17.20;99.90;;;;;;5072889;28;20709;-48
2021/06/08 02:06:52;;;;;;;8.27;7.57;;;17.20;99.90;;;;;;5073832;28;20193;-49
2021/06/08 02:09:23;;;;;;;7.87;7.17;;;17.20;99.90;;;;;;5082710;28;20586;-47
2021/06/08 02:11:57;;;;;;;8.13;7.27;;;17.20;99.90;;;;;;5064821;28;20206;-46
2021/06/08 02:14:28;;;;;;;8.40;7.70;;;17.20;99.90;;;;;;5060262;28;20182;-48
2021/06/08 02:17:00;;;;;;;8.23;7.63;;;17.10;99.90;;;;;;5084313;28;20208;-49
2021/06/08 02:19:28;;;;;;;8.73;7.93;;;17.10;99.90;;;;;;5068668;28;20217;-49
2021/06/08 02:21:57;;;;;;;9.37;8.07;;;17.10;99.90;;;;;;5077072;28;20209;-50
2021/06/08 02:24:26;;;;;;;9.47;7.77;;;17.10;99.90;;;;;;5079610;28;20186;-49
2021/06/08 02:27:00;;;;;;;8.57;7.80;;;17.10;99.90;;;;;;5080391;28;20190;-51
2021/06/08 02:29:27;;;;;;;8.63;7.93;;;17.10;99.90;;;;;;5058415;28;20210;-52
2021/06/08 02:31:54;;;;;;;8.63;7.83;;;17.10;99.90;;;;;;5083589;28;20210;-46
2021/06/08 02:34:21;;;;;;;8.13;7.43;;;17.00;99.90;;;;;;5076324;28;20214;-51
2021/06/08 02:36:49;;;;;;;9.43;7.83;;;17.00;99.90;;;;;;5070496;28;20804;-46
2021/06/08 02:39:16;;;;;;;8.57;7.77;;;17.00;99.90;;;;;;5082257;28;20213;-47
2021/06/08 02:41:42;;;;;;;8.27;7.57;;;17.00;99.90;;;;;;5081911;28;20190;-47
2021/06/08 02:44:11;;;;;;;8.87;7.47;;;17.00;99.90;;;;;;5085158;28;20191;-46
2021/06/08 02:46:38;;;;;;;7.17;6.67;;;17.00;99.90;;;;;;5074645;28;20202;-51
2021/06/08 02:49:06;;;;;;;8.00;7.30;;;17.00;99.90;;;;;;5084195;28;20218;-49
2021/06/08 02:51:32;;;;;;;7.97;6.70;;;17.00;99.90;;;;;;5068000;28;20896;-49
2021/06/08 02:53:59;;;;;;;8.27;7.40;;;16.90;99.90;;;;;;5075489;28;20682;-51
2021/06/08 02:56:26;;;;;;;8.17;7.37;;;16.90;99.90;;;;;;5071100;28;20199;-47
2021/06/08 02:58:54;;;;;;;8.10;7.10;;;16.90;99.90;;;;;;5062997;28;20218;-47
2021/06/08 03:01:22;;;;;;;7.30;6.67;;;16.90;99.90;;;;;;5060803;28;20183;-50
2021/06/08 03:03:53;;;;;;;7.50;6.80;;;16.90;99.90;;;;;;5080301;28;20194;-47
2021/06/08 03:06:23;;;;;;;7.77;7.07;;;17.00;99.90;;;;;;5066836;28;20205;-49
2021/06/08 03:08:55;;;;;;;7.00;6.40;;;17.00;99.90;;;;;;5074484;28;20310;-49
2021/06/08 03:11:24;;;;;;;6.33;5.43;;;17.00;99.90;;;;;;5082083;28;20190;-49
2021/06/08 03:13:51;;;;;;;7.33;6.40;;;17.00;99.90;;;;;;5076965;28;20205;-48
2021/06/08 03:16:19;;;;;;;6.90;6.30;;;17.00;99.90;;;;;;5076572;28;20198;-46
2021/06/08 03:18:49;;;;;;;6.90;6.30;;;17.00;99.90;;;;;;5074127;28;20317;-46
2021/06/08 03:21:18;;;;;;;7.13;6.47;;;16.90;99.90;;;;;;5070441;28;20201;-51
2021/06/08 03:23:49;;;;;;;8.43;6.03;;;16.90;99.90;;;;;;5074465;28;21806;-47
2021/06/08 03:26:16;;;;;;;12.10;10.90;;;16.90;99.90;;;;;;5071340;28;20240;-50
2021/06/08 03:28:44;;;;;;;8.33;7.53;;;16.90;99.90;;;;;;5072968;28;20477;-46
2021/06/08 03:31:11;;;;;;;8.43;7.73;;;16.90;99.90;;;;;;5081294;28;20194;-50
2021/06/08 03:33:39;;;;;;;7.23;6.63;;;16.80;99.90;;;;;;5072840;28;20309;-46
2021/06/08 03:36:07;;;;;;;7.73;6.93;;;16.90;99.90;;;;;;5083507;28;20197;-47
2021/06/08 03:38:35;;;;;;;7.50;6.73;;;16.90;99.90;;;;;;5067474;28;20860;-46
2021/06/08 03:41:02;;;;;;;8.47;7.67;;;16.90;99.90;;;;;;5076170;28;20198;-46
2021/06/08 03:43:28;;;;;;;7.53;6.83;;;16.90;99.90;;;;;;5079926;28;20198;-49
2021/06/08 03:45:55;;;;;;;7.87;7.17;;;16.80;99.90;;;;;;5081299;28;20833;-46
2021/06/08 03:48:21;;;;;;;8.37;7.10;;;16.80;99.90;;;;;;5077294;28;20194;-49
2021/06/08 03:51:03;;;;;;;8.83;7.23;;;16.80;99.90;;;;;;5053656;28;20203;-46
2021/06/08 03:53:31;;;;;;;7.97;7.03;;;16.80;99.90;;;;;;5061754;28;20848;-46
2021/06/08 03:55:57;;;;;;;7.20;6.50;;;16.80;99.90;;;;;;5074138;28;20608;-48
2021/06/08 03:58:24;;;;;;;7.93;6.70;;;16.70;99.90;;;;;;5078449;28;20656;-46
2021/06/08 04:00:54;;;;;;;7.50;6.80;;;16.70;99.90;;;;;;5074153;28;20202;-46
2021/06/08 04:03:20;;;;;;;7.50;6.80;;;16.70;99.90;;;;;;5077018;28;20659;-50
2021/06/08 04:05:47;;;;;;;8.00;7.20;;;16.70;99.90;;;;;;5079920;28;20217;-50
2021/06/08 04:08:14;;;;;;;8.17;7.43;;;16.70;99.90;;;;;;5073954;28;20568;-49
2021/06/08 04:10:42;;;;;;;7.60;6.90;;;16.70;99.90;;;;;;5064831;28;20210;-46
2021/06/08 04:13:08;;;;;;;7.83;7.13;;;16.70;99.90;;;;;;5083160;28;20621;-47
2021/06/08 04:15:35;;;;;;;7.23;6.50;;;16.70;99.90;;;;;;5079099;28;20197;-46
2021/06/08 04:18:02;;;;;;;7.83;7.10;;;16.70;99.90;;;;;;5083249;28;20200;-49
2021/06/08 04:20:29;;;;;;;7.57;6.90;;;16.70;99.90;;;;;;5072526;28;20624;-49
2021/06/08 04:22:57;;;;;;;7.00;6.30;;;16.80;99.90;;;;;;5082232;28;20205;-46
2021/06/08 04:25:24;;;;;;;6.97;6.27;;;16.70;99.90;;;;;;5067413;28;20213;-50
2021/06/08 04:27:53;;;;;;;7.73;6.40;;;16.70;99.90;;;;;;5084125;28;20667;-45
2021/06/08 04:30:20;;;;;;;7.37;6.63;;;16.70;99.90;;;;;;5084484;28;20286;-48
2021/06/08 04:32:47;;;;;;;6.47;5.87;;;16.80;99.90;;;;;;5081829;28;20205;-45
2021/06/08 04:35:16;;;;;;;7.00;6.40;;;16.70;99.90;;;;;;5065479;28;20197;-49
2021/06/08 04:37:42;;;;;;;7.20;6.60;;;16.70;99.90;;;;;;5071114;28;21001;-46
2021/06/08 04:40:10;;;;;;;10.07;7.03;;;16.70;99.90;;;;;;5062021;28;20218;-47
2021/06/08 04:42:37;;;;;;;6.83;6.17;;;16.70;99.90;;;;;;5075970;28;20198;-45
2021/06/08 04:45:06;;;;;;;7.77;6.60;;;16.80;99.90;;;;;;5086986;28;20198;-45
2021/06/08 04:47:32;;;;;;;7.10;6.40;;;16.80;99.90;;;;;;5074683;28;20196;-50
2021/06/08 04:49:58;;;;;;;6.90;6.20;;;16.80;99.90;;;;;;5084801;28;20225;-46
2021/06/08 04:52:24;;;;;;;6.70;6.10;;;16.80;99.90;;;;;;5065773;28;20308;-49
2021/06/08 04:54:51;;;;;;;9.80;6.80;;;16.80;99.90;;;;;;5085207;28;20631;-46
2021/06/08 04:57:18;;;;;;;6.73;6.07;;;16.80;99.90;;;;;;5062583;28;20223;-48
2021/06/08 04:59:49;;;;;;;6.77;6.10;;;16.80;99.90;;;;;;5082340;28;21017;-47
2021/06/08 05:02:23;;;;;;;7.47;6.20;;;16.80;99.90;;;;;;5083437;28;20585;-47
2021/06/08 05:04:51;;;;;;;9.03;6.60;;;16.80;99.90;;;;;;5066101;28;20202;-47
2021/06/08 05:07:19;;;;;;;7.20;6.60;;;16.80;99.90;;;;;;5065844;28;20214;-45
2021/06/08 05:09:48;;;;;;;6.70;6.10;;;16.80;99.90;;;;;;5069489;28;20236;-48
2021/06/08 05:12:19;;;;;;;8.37;6.53;;;16.80;99.90;;;;;;5065269;28;20220;-46
2021/06/08 05:14:48;;;;;;;7.40;6.37;;;16.80;99.90;;;;;;5075836;28;20210;-49
2021/06/08 05:17:19;;;;;;;8.57;6.87;;;16.80;99.90;;;;;;5082152;28;20205;-47
2021/06/08 05:19:47;;;;;;;7.10;6.40;;;16.80;99.90;;;;;;5079217;28;20243;-47
2021/06/08 05:22:14;;;;;;;7.63;6.43;;;16.80;99.90;;;;;;5084957;28;20194;-47
2021/06/08 05:24:41;;;;;;;6.73;6.03;;;16.80;99.90;;;;;;5069976;28;20263;-49
2021/06/08 05:27:10;;;;;;;7.20;5.60;;;16.80;99.90;;;;;;5070124;28;20214;-49
2021/06/08 05:29:36;;;;;;;6.60;6.00;;;16.80;99.90;;;;;;5083846;28;20610;-46
2021/06/08 05:32:03;;;;;;;6.93;5.97;;;16.80;99.90;;;;;;5081121;28;20230;-47
2021/06/08 05:34:31;;;;;;;7.60;6.20;;;16.80;99.90;;;;;;5078058;28;20194;-49
2021/06/08 05:36:57;;;;;;;8.03;6.20;;;16.90;99.90;;;;;;5082001;28;20205;-48
2021/06/08 05:39:34;;;;;;;6.87;6.33;;;16.90;99.90;;;;;;5074206;28;20225;-47
2021/06/08 05:42:00;;;;;;;6.63;5.93;;;16.90;99.90;;;;;;5061447;28;20208;-46
2021/06/08 05:44:26;;;;;;;6.63;5.70;;;17.00;99.90;;;;;;5084623;28;20202;-46
2021/06/08 05:46:53;;;;;;;9.23;5.97;;;17.00;99.90;;;;;;5079475;28;20874;-47
2021/06/08 05:49:19;;;;;;;7.17;6.40;;;17.00;99.90;;;;;;5081689;28;20236;-46
2021/06/08 05:51:47;;;;;;;6.80;6.20;;;17.00;99.90;;;;;;5079964;28;20202;-49
2021/06/08 05:54:14;;;;;;;6.83;5.67;;;17.00;99.90;;;;;;5079381;28;20659;-47
2021/06/08 05:56:40;;;;;;;6.60;6.00;;;17.00;99.90;;;;;;5081377;28;20210;-46
2021/06/08 05:59:07;;;;;;;7.13;6.53;;;17.10;99.90;;;;;;5069273;28;20210;-46
2021/06/08 06:01:34;;;;;;;6.43;5.93;;;17.10;99.90;;;;;;5082920;28;20220;-50
2021/06/08 06:04:00;;;;;;;6.63;6.07;;;17.10;99.90;;;;;;5081903;28;20885;-49
2021/06/08 06:06:27;;;;;;;7.00;6.40;;;17.10;99.90;;;;;;5080606;28;20202;-50
2021/06/08 06:08:55;;;;;;;6.53;5.90;;;17.20;99.90;;;;;;5071996;28;20936;-50
2021/06/08 06:11:22;;;;;;;8.60;5.97;;;17.20;99.90;;;;;;5077364;28;20202;-48
2021/06/08 06:13:53;;;;;;;6.67;5.97;;;17.30;99.90;;;;;;5067203;28;20240;-51
2021/06/08 06:16:20;;;;;;;6.37;5.50;;;17.40;99.90;;;;;;5085157;28;20190;-48
2021/06/08 06:18:47;;;;;;;6.80;5.83;;;17.40;99.90;;;;;;5080916;28;20644;-49
2021/06/08 06:21:15;;;;;;;5.97;5.40;;;17.50;99.90;;;;;;5075833;28;20197;-46
2021/06/08 06:23:41;;;;;;;5.77;5.27;;;17.50;99.90;;;;;;5062615;28;20256;-50
2021/06/08 06:26:09;;;;;;;6.07;5.43;;;17.50;99.90;;;;;;5072382;28;20198;-48
2021/06/08 06:28:38;;;;;;;5.63;5.23;;;17.60;99.90;;;;;;5083082;28;20220;-47
2021/06/08 06:31:06;;;;;;;6.63;5.73;;;17.50;99.90;;;;;;5066025;28;20204;-46
2021/06/08 06:33:32;;;;;;;7.63;6.00;;;17.60;99.90;;;;;;5076435;28;20703;-51
2021/06/08 06:35:59;;;;;;;18.43;7.13;;;17.60;99.90;;;;;;5076096;28;20205;-50
2021/06/08 06:38:27;;;;;;;12.87;6.07;;;17.60;99.90;;;;;;5074306;28;20202;-45
2021/06/08 06:40:54;;;;;;;7.27;5.83;;;17.70;99.90;;;;;;5076522;28;20186;-48
2021/06/08 06:43:25;;;;;;;6.10;5.60;;;17.70;99.90;;;;;;5074640;28;20729;-47
2021/06/08 06:45:52;;;;;;;5.73;5.13;;;17.80;99.90;;;;;;5065380;28;20217;-45
2021/06/08 06:48:19;;;;;;;5.97;5.43;;;17.80;99.90;;;;;;5083220;28;20240;-48
2021/06/08 06:50:46;;;;;;;6.90;6.30;;;17.80;99.90;;;;;;5077209;28;20885;-49
2021/06/08 06:53:16;;;;;;;6.70;5.90;;;17.90;99.90;;;;;;5065310;28;20285;-47
2021/06/08 06:55:43;;;;;;;6.20;5.70;;;17.90;99.90;;;;;;5061689;28;20198;-47
2021/06/08 06:58:11;;;;;;;6.77;5.63;;;17.90;99.90;;;;;;5061056;28;20711;-47
2021/06/08 07:00:41;;;;;;;7.93;5.73;;;18.00;99.90;;;;;;5065620;28;20570;-45
2021/06/08 07:03:09;;;;;;;6.63;6.00;;;18.00;99.90;;;;;;5075559;28;20457;-46
2021/06/08 07:05:36;;;;;;;6.67;6.10;;;18.00;99.90;;;;;;5077851;28;20194;-48
2021/06/08 07:08:05;;;;;;;7.50;6.77;;;18.10;99.90;;;;;;5082158;28;20318;-48
2021/06/08 07:10:31;;;;;;;6.43;5.93;;;18.20;99.90;;;;;;5081061;28;20695;-49
2021/06/08 07:13:03;;;;;;;6.60;5.70;;;18.20;99.90;;;;;;5071453;28;20214;-46
2021/06/08 07:15:30;;;;;;;6.67;6.07;;;18.20;99.90;;;;;;5073408;28;20202;-45
2021/06/08 07:17:58;;;;;;;7.87;6.40;;;18.30;99.90;;;;;;5060887;28;20212;-45
2021/06/08 07:20:25;;;;;;;6.20;5.60;;;18.30;99.90;;;;;;5081390;28;20557;-47
2021/06/08 07:22:52;;;;;;;6.60;6.10;;;18.40;99.90;;;;;;5069929;28;20186;-47
2021/06/08 07:25:20;;;;;;;6.97;5.80;;;18.40;99.90;;;;;;5082500;28;20228;-47
2021/06/08 07:27:47;;;;;;;9.47;7.13;;;18.40;99.90;;;;;;5078886;28;20667;-47
2021/06/08 07:30:15;;;;;;;7.60;6.03;;;18.50;99.90;;;;;;5076421;28;20225;-48
2021/06/08 07:32:48;;;;;;;6.13;5.53;;;18.50;99.90;;;;;;5068003;28;20770;-47
2021/06/08 07:35:22;;;;;;;6.37;5.67;;;18.60;99.90;;;;;;5082532;28;20190;-47
2021/06/08 07:37:50;;;;;;;6.30;5.70;;;18.70;99.90;;;;;;5078416;28;20197;-47
2021/06/08 07:40:21;;;;;;;8.93;6.13;;;18.70;99.90;;;;;;5078933;28;20617;-45
2021/06/08 07:42:52;;;;;;;6.27;5.67;;;18.80;99.90;;;;;;5076335;28;20191;-48
2021/06/08 07:45:20;;;;;;;6.77;6.27;;;18.80;99.90;;;;;;5072465;28;20197;-47
2021/06/08 07:47:49;;;;;;;5.43;4.93;;;19.00;99.90;;;;;;5066372;28;20209;-47
2021/06/08 07:50:18;;;;;;;7.27;5.73;;;19.00;99.90;;;;;;5079377;28;20206;-49
2021/06/08 07:52:45;;;;;;;6.17;5.57;;;19.00;99.90;;;;;;5074418;28;20468;-48
2021/06/08 07:55:12;;;;;;;6.37;5.33;;;19.10;99.90;;;;;;5071423;28;20235;-47
2021/06/08 07:57:39;;;;;;;5.93;5.43;;;19.10;99.90;;;;;;5074717;28;20778;-48
2021/06/08 08:00:07;;;;;;;6.17;5.63;;;19.20;99.90;;;;;;5072641;28;20217;-47
2021/06/08 08:02:39;;;;;;;10.00;5.40;;;19.30;99.90;;;;;;5069436;28;20955;-47
2021/06/08 08:05:09;;;;;;;6.87;6.13;;;19.40;99.90;;;;;;5067281;28;20209;-46
2021/06/08 08:07:38;;;;;;;6.33;5.83;;;19.50;99.90;;;;;;5076106;28;20844;-49
2021/06/08 08:10:06;;;;;;;6.07;5.57;;;19.50;99.90;;;;;;5074765;28;20961;-45
2021/06/08 08:12:35;;;;;;;6.90;6.30;;;19.50;99.90;;;;;;5080670;28;20206;-47
2021/06/08 08:15:01;;;;;;;5.57;5.10;;;19.60;99.90;;;;;;5077329;28;20190;-46
2021/06/08 08:17:28;;;;;;;5.47;5.03;;;19.60;99.90;;;;;;5069166;28;20217;-49
2021/06/08 08:19:55;;;;;;;6.37;5.67;;;19.60;99.90;;;;;;5056028;28;20214;-45
2021/06/08 08:22:21;;;;;;;5.73;5.33;;;19.70;99.90;;;;;;5076696;28;20193;-48
2021/06/08 08:24:49;;;;;;;6.20;5.70;;;19.70;99.90;;;;;;5074492;28;20701;-49
2021/06/08 08:27:15;;;;;;;5.40;4.97;;;19.80;99.90;;;;;;5073567;28;20198;-51
2021/06/08 08:29:45;;;;;;;6.47;5.87;;;19.80;99.90;;;;;;5076679;28;20263;-47
2021/06/08 08:32:11;;;;;;;6.27;5.50;;;19.90;99.90;;;;;;5064549;28;20569;-49
2021/06/08 08:34:38;;;;;;;5.87;5.23;;;20.10;99.90;;;;;;5061989;28;20621;-48
2021/06/08 08:37:05;;;;;;;7.13;5.43;;;20.10;99.90;;;;;;5073923;28;20211;-46
2021/06/08 08:39:33;;;;;;;5.57;5.17;;;;;;;;;;5070233;28;20741;-48
2021/06/08 08:42:02;;;;;;;5.40;4.90;;;;;;;;;;5078895;28;20217;-47
2021/06/08 08:44:28;;;;;;;5.77;4.63;;;20.60;99.90;;;;;;5081065;28;20285;-49
2021/06/08 08:46:55;;;;;;;4.47;3.83;;;20.70;99.90;;;;;;5076321;28;20201;-48
2021/06/08 08:49:21;;;;;;;5.23;4.40;;;20.90;99.90;;;;;;5074084;28;20301;-46
2021/06/08 08:51:49;;;;;;;6.10;4.37;;;;;;;;;;5065306;28;20206;-45
2021/06/08 08:54:19;;;;;;;4.80;4.40;;;;;;;;;;5074638;28;20260;-45
2021/06/08 08:56:45;;;;;;;4.10;3.83;;;21.40;99.90;;;;;;5074606;28;20194;-49
2021/06/08 08:59:16;;;;;;;4.40;4.00;;;21.50;99.90;;;;;;5072975;28;20208;-46
2021/06/08 09:01:46;;;;;;;5.53;3.97;;;21.50;99.90;;;;;;5080221;28;20194;-46
2021/06/08 09:04:13;;;;;;;3.47;3.10;;;21.50;99.90;;;;;;5068803;28;20880;-49
2021/06/08 09:06:40;;;;;;;5.47;3.58;;;21.60;99.90;;;;;;5062759;28;20236;-47
2021/06/08 09:09:08;;;;;;;4.10;3.70;;;21.60;99.90;;;;;;5072607;28;20310;-46
2021/06/08 09:11:37;;;;;;;5.47;4.03;;;21.60;99.90;;;;;;5073978;28;20595;-45
2021/06/08 09:14:04;;;;;;;3.63;2.95;;;21.60;99.90;;;;;;5078235;28;20214;-49
2021/06/08 09:16:32;;;;;;;4.15;3.80;;;21.60;99.90;;;;;;5083725;28;20667;-45
2021/06/08 09:19:02;;;;;;;4.18;3.80;;;21.70;99.90;;;;;;5080147;28;20229;-47
2021/06/08 09:21:31;;;;;;;4.38;3.70;;;21.60;99.90;;;;;;5069197;28;20206;-45
2021/06/08 09:24:15;;;;;;;6.18;3.70;;;21.70;99.90;;;;;;5080057;28;20204;-45
2021/06/08 09:26:50;;;;;;;6.88;3.80;;;21.70;99.90;;;;;;5083712;28;20277;-48
2021/06/08 09:29:27;;;;;;;5.28;3.80;;;21.70;99.90;;;;;;5062575;28;20291;-47
2021/06/08 09:32:16;;;;;;;4.15;3.75;;;21.60;99.90;;;;;;5083555;28;20194;-46
2021/06/08 09:34:48;;;;;;;5.30;4.30;;;21.70;99.90;;;;;;5074880;28;20206;-46
2021/06/08 09:37:14;;;;;;;5.13;3.78;;;21.70;99.90;;;;;;5060523;28;20198;-45
2021/06/08 09:39:46;;;;;;;5.43;4.10;;;21.80;99.90;;;;;;5080126;28;20247;-46
2021/06/08 09:42:24;;;;;;;5.25;3.53;;;21.80;99.90;;;;;;5079738;28;20189;-47
2021/06/08 09:44:51;;;;;;;3.90;3.33;;;21.80;99.90;;;;;;5084332;28;20209;-48
2021/06/08 09:47:30;;;;;;;4.60;3.00;;;21.90;99.90;;;;;;5077388;28;20198;-52
2021/06/08 09:49:57;;;;;;;4.25;3.58;;;21.90;99.90;;;;;;5081107;28;20226;-48
2021/06/08 09:52:24;;;;;;;5.20;3.35;;;22.00;99.90;;;;;;5060864;28;20202;-46
2021/06/08 09:54:52;;;;;;;4.60;3.50;;;22.10;99.90;;;;;;5080466;28;20636;-49
2021/06/08 09:57:20;;;;;;;4.45;3.28;;;;;;;;;;5081960;28;20268;-48
2021/06/08 09:59:49;;;;;;;4.70;3.58;;;22.60;99.90;;;;;;5078727;28;20831;-48
2021/06/08 10:02:27;;;;;;;6.18;3.25;;;22.60;99.90;;;;;;5073090;28;20858;-47
2021/06/08 10:05:15;;;;;;;3.92;3.00;;;22.60;99.90;;;;;;5083577;28;20282;-47
2021/06/08 10:07:42;;;;;;;3.85;2.92;;;22.50;99.90;;;;;;5070738;28;20210;-49
2021/06/08 10:10:10;;;;;;;4.30;3.47;;;22.40;99.90;;;;;;5074030;28;20241;-48
2021/06/08 10:12:36;;;;;;;3.53;3.10;;;22.50;99.90;;;;;;5074322;28;20215;-46
2021/06/08 10:15:09;;;;;;;3.03;2.80;;;22.50;99.90;;;;;;5069384;28;20186;-46
2021/06/08 10:17:37;;;;;;;3.65;3.30;;;22.60;99.90;;;;;;5083415;28;20331;-49
2021/06/08 10:20:22;;;;;;;2.85;2.65;;;22.60;99.90;;;;;;5073023;28;20211;-51
2021/06/08 10:22:49;;;;;;;3.13;2.80;;;22.60;99.90;;;;;;5081284;28;20195;-49
2021/06/08 10:25:16;;;;;;;3.47;3.17;;;22.70;99.90;;;;;;5056012;28;20255;-46
2021/06/08 10:27:43;;;;;;;3.67;3.38;;;23.00;99.90;;;;;;5077457;28;20198;-50
2021/06/08 10:30:11;;;;;;;3.13;2.92;;;23.00;99.90;;;;;;5078172;28;20587;-49
2021/06/08 10:32:38;;;;;;;3.17;2.97;;;22.90;99.90;;;;;;5084272;28;20212;-48
2021/06/08 10:35:07;;;;;;;3.45;3.25;;;22.80;99.90;;;;;;5081219;28;20243;-47
2021/06/08 10:37:34;;;;;;;4.72;3.20;;;22.70;99.90;;;;;;5081724;28;20792;-49
2021/06/08 10:40:01;;;;;;;4.45;3.95;;;22.60;99.90;;;;;;5065132;28;20287;-49
2021/06/08 10:42:27;;;;;;;4.82;3.38;;;22.60;99.90;;;;;;5081101;28;20190;-46
2021/06/08 10:45:07;;;;;;;7.22;3.80;;;22.60;99.90;;;;;;5072911;28;20207;-48
2021/06/08 10:47:39;;;;;;;4.25;3.30;;;22.50;99.90;;;;;;5077595;28;20683;-48
2021/06/08 10:50:24;;;;;;;3.88;3.10;;;22.40;99.90;;;;;;5078210;28;20221;-49
2021/06/08 10:52:55;;;;;;;4.35;3.92;;;22.40;99.90;;;;;;5083656;28;20703;-49
2021/06/08 10:55:25;;;;;;;4.03;3.65;;;22.50;99.90;;;;;;5063829;28;20213;-51
2021/06/08 10:57:52;;;;;;;3.90;3.60;;;22.60;99.90;;;;;;5079023;28;20254;-50
2021/06/08 11:00:35;;;;;;;4.53;3.60;;;22.60;99.90;;;;;;5075369;28;20221;-48
2021/06/08 11:03:02;;;;;;;4.13;3.25;;;22.80;99.90;;;;;;5075091;28;20197;-47
2021/06/08 11:05:49;;;;;;;3.50;3.30;;;22.80;99.90;;;;;;5080879;28;20194;-48
2021/06/08 11:08:18;;;;;;;3.08;2.85;;;22.80;99.90;;;;;;5059238;28;20210;-49
2021/06/08 11:10:58;;;;;;;3.10;2.90;;;22.90;99.90;;;;;;5081710;28;20200;-48
2021/06/08 11:13:40;;;;;;;3.88;2.53;;;22.90;99.90;;;;;;5075941;28;20245;-46
2021/06/08 11:16:31;;;;;;;2.67;2.47;;;22.70;99.90;;;;;;5073692;28;20185;-46
2021/06/08 11:18:58;;;;;;;3.05;2.85;;;22.70;99.90;;;;;;5077492;28;20213;-51
2021/06/08 11:21:27;;;;;;;3.53;3.08;;;22.90;99.90;;;;;;5082157;28;20728;-46
2021/06/08 11:23:55;;;;;;;2.80;2.55;;;23.10;99.90;;;;;;5077055;28;20194;-48
2021/06/08 11:26:51;;;;;;;3.10;2.83;;;23.10;97.80;;;;;;5075194;28;20178;-50
2021/06/08 11:29:42;;;;;;;2.20;2.05;;;23.00;99.70;;;;;;5069876;28;20221;-49
2021/06/08 11:32:08;;;;;;;2.75;2.50;;;23.00;99.90;;;;;;5067880;28;20267;-47
2021/06/08 11:35:05;;;;;;;3.72;2.20;;;23.00;99.50;;;;;;5069643;28;20209;-49
2021/06/08 11:37:51;;;;;;;2.42;2.22;;;23.10;97.30;;;;;;5076765;28;20277;-48
2021/06/08 11:40:54;;;;;;;2.08;1.63;;;23.20;97.10;;;;;;5074931;28;21526;-51
2021/06/08 11:43:56;;;;;;;3.00;1.92;;;23.30;96.90;;;;;;5066111;28;20201;-50
2021/06/08 11:46:44;;;;;;;1.95;1.85;;;23.40;93.50;;;;;;5076262;28;20209;-47
2021/06/08 11:49:15;;;;;;;2.50;2.20;;;23.50;95.40;;;;;;5079235;28;20221;-51
2021/06/08 11:51:48;;;;;;;3.15;1.73;;;23.70;93.50;;;;;;5078968;28;20279;-49
2021/06/08 11:54:17;;;;;;;1.85;1.75;;;23.70;94.30;;;;;;5080336;28;20214;-49
2021/06/08 11:56:55;;;;;;;2.10;2.00;;;23.80;93.80;;;;;;5066339;28;20298;-47
2021/06/08 11:59:25;;;;;;;1.95;1.85;;;23.90;93.40;;;;;;5061936;28;20582;-51
2021/06/08 12:01:56;;;;;;;2.15;1.63;;;24.00;93.80;;;;;;5080722;28;20696;-45
2021/06/08 12:04:24;;;;;;;2.17;1.52;;;23.90;93.10;;;;;;5079996;28;20247;-47
2021/06/08 12:07:12;;;;;;;2.40;1.73;;;23.70;94.50;;;;;;5076249;28;20202;-47
2021/06/08 12:09:44;;;;;;;2.40;1.40;;;23.70;95.60;;;;;;5070461;28;20221;-48
2021/06/08 12:12:13;;;;;;;1.55;1.45;;;23.70;91.90;;;;;;5075877;28;20298;-47
2021/06/08 12:14:51;;;;;;;3.92;1.52;;;23.70;93.90;;;;;;5054412;28;20340;-50
2021/06/08 12:17:19;;;;;;;4.28;1.58;;;23.60;85.80;;;;;;5072904;28;20206;-49
2021/06/08 12:19:45;;;;;;;1.38;1.17;;;23.60;90.30;;;;;;5063282;28;20210;-49
2021/06/08 12:22:21;;;;;;;1.23;1.23;;;23.70;86.90;;;;;;5075969;28;20206;-48
2021/06/08 12:24:58;;;;;;;1.25;1.13;;;23.80;87.30;;;;;;5079590;28;20193;-49
2021/06/08 12:27:39;;;;;;;1.17;1.10;;;24.00;87.50;;;;;;5073555;28;20205;-49
2021/06/08 12:30:08;;;;;;;1.00;1.00;;;24.00;87.80;;;;;;5069889;28;20215;-48
2021/06/08 12:32:37;;;;;;;1.17;1.08;;;24.00;87.60;;;;;;5066678;28;20202;-48
2021/06/08 12:35:05;;;;;;;1.85;1.00;;;23.90;86.70;;;;;;5078612;28;20276;-48
2021/06/08 12:37:31;;;;;;;2.80;1.00;;;24.00;79.80;;;;;;5067990;28;20178;-49
2021/06/08 12:39:59;;;;;;;1.10;0.80;;;24.10;81.10;;;;;;5068644;28;20547;-51
2021/06/08 12:42:26;;;;;;;0.82;0.82;;;24.30;82.30;;;;;;5075477;28;20209;-47
2021/06/08 12:44:53;;;;;;;0.70;0.70;;;24.40;76.60;;;;;;5079303;28;20350;-50
2021/06/08 12:47:22;;;;;;;2.88;1.02;;;24.60;72.80;;;;;;5066420;28;20865;-49
2021/06/08 12:49:50;;;;;;;0.75;0.70;;;24.70;71.30;;;;;;5076822;28;20249;-49
2021/06/08 12:52:19;;;;;;;0.75;0.68;;;25.00;70.90;;;;;;5079292;28;20256;-48
2021/06/08 12:54:46;;;;;;;0.50;0.50;;;25.30;72.40;;;;;;5079091;28;20220;-46
2021/06/08 12:57:22;;;;;;;1.00;0.47;;;25.80;67.50;;;;;;5077548;28;20239;-53
2021/06/08 12:59:53;;;;;;;0.70;0.70;;;25.90;63.30;;;;;;5084938;28;20605;-51